Time;durP1;ratioP1;P1;durP2;ratioP2;P2;SDS_P1;SDS_P2;PMS_P1;PMS_P2;Temp;Humidity;BMP_temperature;BMP_pressure;BME280_temperature;BME280_humidity;BME280_pressure;Samples;Min_cycle;Max_cycle;Signal;HPM_P1;HPM_P2
2022/04/28 00:00:41;;;;;;;6.25;4.22;;;;;;;9.47;100.00;100844.50;5589191;31;33617;-69
2022/04/28 00:03:45;;;;;;;7.32;4.45;;;;;;;9.41;100.00;100835.34;5589769;31;33973;-69
2022/04/28 00:06:47;;;;;;;7.55;5.07;;;;;;;9.41;100.00;100834.50;5589732;31;33957;-69
2022/04/28 00:09:50;;;;;;;7.43;4.40;;;;;;;9.38;100.00;100851.53;5589077;31;34289;-69
2022/04/28 00:12:53;;;;;;;5.72;3.78;;;;;;;9.38;100.00;100846.25;5588967;31;34038;-69
2022/04/28 00:15:55;;;;;;;6.05;3.95;;;;;;;9.47;100.00;100839.22;5589805;31;33950;-69
2022/04/28 00:18:58;;;;;;;6.93;4.43;;;;;;;9.33;100.00;100837.91;5589601;31;34502;-69
2022/04/28 00:22:01;;;;;;;7.18;4.57;;;;;;;9.45;100.00;100823.47;5588876;31;32365;-69
2022/04/28 00:25:04;;;;;;;6.57;4.32;;;;;;;9.45;100.00;100826.09;5589755;31;34605;-69
2022/04/28 00:28:07;;;;;;;7.05;4.62;;;;;;;9.36;100.00;100829.66;5589548;31;33946;-69
2022/04/28 00:31:10;;;;;;;6.65;4.30;;;;;;;9.33;100.00;100829.97;5589846;31;34432;-69
2022/04/28 00:34:14;;;;;;;7.00;4.82;;;;;;;9.27;100.00;100827.06;5589527;31;34651;-69
2022/04/28 00:37:17;;;;;;;5.78;4.55;;;;;;;9.21;100.00;100832.94;5589557;31;33885;-69
2022/04/28 00:40:20;;;;;;;6.37;4.43;;;;;;;9.26;100.00;100834.19;5589446;31;34330;-69
2022/04/28 00:43:26;;;;;;;8.20;4.60;;;;;;;9.29;100.00;100833.91;5589282;31;35234;-68
2022/04/28 00:46:29;;;;;;;7.18;4.35;;;;;;;9.22;100.00;100839.91;5588516;31;33938;-69
2022/04/28 00:52:54;;;;;;;8.30;4.57;;;;;;;9.22;100.00;100848.69;5588628;31;33975;-68
2022/04/28 00:56:00;;;;;;;7.00;4.47;;;;;;;9.22;100.00;100848.69;5589243;31;33912;-68
2022/04/28 00:59:02;;;;;;;6.55;4.75;;;;;;;9.21;100.00;100844.38;5589538;31;34561;-68
2022/04/28 01:02:06;;;;;;;6.00;4.35;;;;;;;9.19;100.00;100842.88;5589136;31;34557;-68
2022/04/28 01:05:10;;;;;;;8.00;4.87;;;;;;;9.19;100.00;100842.88;5589379;31;33951;-68
2022/04/28 01:08:13;;;;;;;10.05;5.15;;;;;;;9.25;100.00;100843.09;5589110;31;33898;-68
2022/04/28 01:11:16;;;;;;;8.73;5.37;;;;;;;9.27;100.00;100837.66;5589298;31;33973;-68
2022/04/28 01:14:19;;;;;;;7.87;4.95;;;;;;;9.25;100.00;100827.22;5588897;31;33917;-68
2022/04/28 01:17:22;;;;;;;8.57;5.32;;;;;;;9.29;100.00;100833.06;5588166;31;33252;-68
2022/04/28 01:20:26;;;;;;;7.90;5.62;;;;;;;9.21;100.00;100822.34;5589120;31;34416;-68
2022/04/28 01:23:31;;;;;;;7.93;5.10;;;;;;;9.16;100.00;100818.34;5587664;31;32679;-68
2022/04/28 01:26:35;;;;;;;7.00;4.65;;;;;;;9.17;100.00;100816.53;5589098;31;35145;-68
2022/04/28 01:29:38;;;;;;;6.70;4.35;;;;;;;9.15;100.00;100821.13;5574893;31;33018;-68
2022/04/28 01:32:42;;;;;;;6.60;4.25;;;;;;;9.10;100.00;100820.78;5588673;31;33993;-68
2022/04/28 01:35:45;;;;;;;5.50;4.03;;;;;;;9.07;100.00;100813.94;5588590;31;33982;-68
2022/04/28 01:38:48;;;;;;;6.00;4.03;;;;;;;9.09;100.00;100821.75;5587817;31;32539;-68
2022/04/28 01:41:51;;;;;;;5.85;4.47;;;;;;;9.08;100.00;100815.63;5588357;31;34712;-68
2022/04/28 01:44:53;;;;;;;6.20;3.97;;;;;;;9.18;100.00;100818.22;5588589;31;33948;-68
2022/04/28 01:47:56;;;;;;;5.93;3.50;;;;;;;9.10;100.00;100821.56;5588373;31;34153;-68
2022/04/28 01:57:46;;;;;;;4.82;3.35;;;;;;;9.14;100.00;100812.38;5588254;31;34631;-68
2022/04/28 02:00:50;;;;;;;5.93;3.83;;;;;;;8.98;100.00;100819.28;5588097;31;33989;-68
2022/04/28 02:03:53;;;;;;;5.78;4.07;;;;;;;8.96;100.00;100815.94;5587260;31;32643;-68
2022/04/28 02:06:56;;;;;;;5.10;3.10;;;;;;;9.20;100.00;100828.66;5588028;31;34624;-68
2022/04/28 02:10:00;;;;;;;5.60;3.83;;;;;;;9.23;100.00;100823.06;5587028;31;32460;-67
2022/04/28 02:13:03;;;;;;;5.03;3.72;;;;;;;9.14;100.00;100820.31;5587857;31;34077;-68
2022/04/28 02:16:10;;;;;;;5.75;3.62;;;;;;;9.14;100.00;100819.50;5588736;31;33876;-68
2022/04/28 02:19:16;;;;;;;4.30;3.40;;;;;;;9.17;100.00;100819.19;5590782;31;34100;-68
2022/04/28 02:22:19;;;;;;;6.47;3.95;;;;;;;9.17;100.00;100821.84;5590458;31;34304;-68
2022/04/28 02:25:22;;;;;;;5.70;3.70;;;;;;;9.20;100.00;100812.78;5590058;31;33100;-68
2022/04/28 02:28:26;;;;;;;5.43;3.53;;;;;;;9.19;100.00;100804.00;5590635;31;34255;-68
2022/04/28 02:31:28;;;;;;;5.00;3.50;;;;;;;9.17;100.00;100803.31;5585881;31;149496;-68
2022/04/28 02:34:31;;;;;;;5.53;3.90;;;;;;;9.19;100.00;100809.28;5589755;31;33262;-68
2022/04/28 02:37:34;;;;;;;7.60;4.20;;;;;;;9.17;100.00;100808.59;5590941;31;34115;-68
2022/04/28 02:40:37;;;;;;;7.65;3.65;;;;;;;9.19;100.00;100805.81;5590886;31;34650;-68
2022/04/28 02:43:40;;;;;;;5.20;3.67;;;;;;;9.20;100.00;100808.28;5590464;31;34004;-68
2022/04/28 02:46:45;;;;;;;6.05;3.72;;;;;;;9.19;100.00;100805.81;5590661;31;34171;-68
2022/04/28 02:49:48;;;;;;;5.18;3.62;;;;;;;9.20;100.00;100810.13;5589640;31;34075;-68
2022/04/28 02:52:52;;;;;;;5.37;3.62;;;;;;;9.22;100.00;100803.69;5590614;31;34166;-68
2022/04/28 02:55:55;;;;;;;6.80;3.80;;;;;;;9.14;100.00;100808.91;5590410;31;33988;-68
2022/04/28 02:58:58;;;;;;;6.82;3.55;;;;;;;9.14;100.00;100804.44;5590692;31;33983;-68
2022/04/28 03:02:00;;;;;;;5.82;3.70;;;;;;;9.20;100.00;100810.13;5590645;31;33909;-68
2022/04/28 03:05:04;;;;;;;8.98;3.65;;;;;;;9.19;100.00;100813.75;5590318;31;35223;-68
2022/04/28 03:11:29;;;;;;;6.10;3.97;;;;;;;9.14;100.00;100817.69;5589335;31;33692;-68
2022/04/28 03:14:32;;;;;;;4.62;3.40;;;;;;;9.13;100.00;100808.06;5590321;31;34189;-68
2022/04/28 03:17:35;;;;;;;4.97;3.42;;;;;;;9.11;100.00;100815.31;5590434;31;33936;-68
2022/04/28 03:20:38;;;;;;;6.85;3.60;;;;;;;9.08;100.00;100820.91;5590546;31;34669;-67
2022/04/28 03:23:41;;;;;;;4.85;3.40;;;;;;;9.08;100.00;100818.25;5589957;31;35333;-68
2022/04/28 03:26:45;;;;;;;5.20;3.42;;;;;;;9.07;100.00;100823.69;5589737;31;34640;-67
2022/04/28 03:29:48;;;;;;;5.43;4.03;;;;;;;9.09;100.00;100827.88;5589766;31;34034;-67
2022/04/28 03:32:50;;;;;;;6.03;3.92;;;;;;;9.11;100.00;100825.91;5589943;31;35119;-68
2022/04/28 03:35:53;;;;;;;5.45;4.05;;;;;;;9.11;100.00;100833.84;5590139;31;33875;-68
2022/04/28 03:38:56;;;;;;;7.55;3.85;;;;;;;9.08;100.00;100828.00;5589076;31;34173;-67
2022/04/28 03:41:59;;;;;;;5.12;3.60;;;;;;;9.15;100.00;100834.38;5590053;31;34667;-67
2022/04/28 03:45:01;;;;;;;6.15;3.78;;;;;;;9.23;100.00;100834.47;5589097;31;32424;-67
2022/04/28 03:48:10;;;;;;;5.70;3.87;;;;;;;9.27;100.00;100843.78;5590123;31;34012;-69
2022/04/28 03:51:12;;;;;;;5.05;3.55;;;;;;;9.22;100.00;100846.03;5589198;31;32470;-69
2022/04/28 03:54:15;;;;;;;5.68;3.78;;;;;;;9.26;100.00;100844.75;5589294;31;33785;-69
2022/04/28 03:57:18;;;;;;;6.60;3.78;;;;;;;9.32;100.00;100844.19;5589902;31;34193;-69
2022/04/28 04:00:22;;;;;;;5.95;3.70;;;;;;;9.27;100.00;100848.25;5589812;31;34655;-68
2022/04/28 04:03:27;;;;;;;6.55;3.72;;;;;;;9.24;100.00;100849.38;5588781;31;32559;-69
2022/04/28 04:06:31;;;;;;;5.65;3.55;;;;;;;9.29;100.00;100848.94;5589737;31;33996;-69
2022/04/28 04:09:36;;;;;;;8.18;4.20;;;;;;;9.22;100.00;100851.34;5589990;31;34612;-69
2022/04/28 04:12:39;;;;;;;5.65;3.75;;;;;;;9.25;100.00;100852.84;5588769;31;32682;-69
2022/04/28 04:15:44;;;;;;;6.57;3.80;;;;;;;9.22;100.00;100853.16;5575753;31;33705;-69
2022/04/28 04:18:47;;;;;;;6.72;3.92;;;;;;;9.16;100.00;100858.06;5589267;31;34331;-69
2022/04/28 04:21:50;;;;;;;5.85;4.00;;;;;;;9.09;100.00;100856.16;5588916;31;32492;-69
2022/04/28 04:24:52;;;;;;;6.00;3.95;;;;;;;9.07;100.00;100858.94;5589842;31;34212;-70
2022/04/28 04:27:55;;;;;;;6.95;3.87;;;;;;;9.06;100.00;100856.44;5589661;31;35165;-69
2022/04/28 04:34:23;;;;;;;7.07;4.12;;;;;;;9.09;100.00;100854.34;5589429;31;34606;-69
2022/04/28 04:37:26;;;;;;;5.65;4.00;;;;;;;9.12;100.00;100858.50;5589774;31;33970;-69
2022/04/28 04:40:29;;;;;;;7.75;4.05;;;;;;;9.09;100.00;100857.00;5588631;31;34642;-69
2022/04/28 04:43:32;;;;;;;6.57;3.87;;;;;;;9.16;100.00;100857.22;5589331;31;33941;-68
2022/04/28 04:46:34;;;;;;;6.05;3.95;;;;;;;9.22;100.00;100864.56;5589117;31;33979;-69
2022/04/28 04:49:39;;;;;;;5.45;3.37;;;;;;;9.25;100.00;100858.97;5589172;31;34557;-69
2022/04/28 04:52:42;;;;;;;5.57;3.70;;;;;;;9.41;100.00;100861.81;5588375;31;34053;-69
2022/04/28 04:55:47;;;;;;;6.55;3.65;;;;;;;9.47;100.00;100868.34;5588348;31;33594;-68
2022/04/28 04:58:51;;;;;;;6.68;4.30;;;;;;;9.51;100.00;100870.53;5588070;31;32560;-68
2022/04/28 05:01:53;;;;;;;7.60;5.10;;;;;;;9.52;100.00;100864.28;5575123;31;33671;-68
2022/04/28 05:04:59;;;;;;;6.03;3.83;;;;;;;9.45;100.00;100867.66;5588138;31;33564;-69
2022/04/28 05:08:06;;;;;;;7.40;5.43;;;;;;;9.50;100.00;100870.69;5589283;31;34192;-69
2022/04/28 05:11:09;;;;;;;6.75;3.67;;;;;;;9.63;100.00;100871.19;5587638;31;33955;-69
2022/04/28 05:14:13;;;;;;;5.90;4.03;;;;;;;9.68;100.00;100884.81;5588062;31;34281;-69
2022/04/28 05:17:16;;;;;;;6.03;3.97;;;;;;;9.79;100.00;100884.56;5587886;31;33838;-69
2022/04/28 05:20:20;;;;;;;6.65;3.62;;;;;;;9.84;100.00;100878.81;5587701;31;33719;-69
2022/04/28 05:23:27;;;;;;;7.37;4.18;;;;;;;9.78;100.00;100885.56;5588507;31;33852;-69
2022/04/28 05:26:32;;;;;;;6.03;4.00;;;;;;;9.85;100.00;100888.44;5588476;31;34216;-68
2022/04/28 05:29:35;;;;;;;5.70;4.03;;;;;;;9.94;100.00;100895.47;5588457;31;33966;-69
2022/04/28 05:32:40;;;;;;;8.68;3.85;;;;;;;9.94;100.00;100893.66;5587271;31;32440;-69
2022/04/28 05:35:43;;;;;;;8.50;4.22;;;;;;;10.09;100.00;100891.31;5588549;31;34470;-68
2022/04/28 05:38:46;;;;;;;7.60;4.18;;;;;;;10.18;100.00;100906.34;5588051;31;34581;-69
2022/04/28 05:41:48;;;;;;;6.10;4.00;;;;;;;10.41;100.00;100906.69;5587630;31;32377;-69
2022/04/28 05:48:16;;;;;;;7.65;4.03;;;;;;;10.53;100.00;100900.16;5587836;31;33941;-69
2022/04/28 05:51:19;;;;;;;5.15;3.53;;;;;;;10.69;100.00;100910.06;5588241;31;34665;-67
2022/04/28 05:54:23;;;;;;;8.13;4.43;;;;;;;10.78;100.00;100909.13;5590431;31;34690;-68
2022/04/28 05:57:25;;;;;;;5.90;3.37;;;;;;;10.92;100.00;100908.56;5590227;31;33780;-68
2022/04/28 06:00:29;;;;;;;5.55;3.53;;;;;;;10.99;100.00;100911.44;5589539;31;33166;-68
2022/04/28 06:03:32;;;;;;;6.37;4.00;;;;;;;11.12;100.00;100906.50;5576312;31;32397;-69
2022/04/28 06:06:36;;;;;;;6.15;3.35;;;;;;;11.16;100.00;100914.00;5589683;31;34039;-69
2022/04/28 06:09:39;;;;;;;5.95;3.40;;;;;;;11.58;100.00;100907.84;5589323;31;32607;-69
2022/04/28 06:12:42;;;;;;;5.70;3.22;;;;;;;11.34;100.00;100913.91;5589215;31;32476;-69
2022/04/28 06:15:47;;;;;;;6.05;4.05;;;;;;;11.51;100.00;100913.00;5589320;31;32576;-69
2022/04/28 06:18:56;;;;;;;5.53;3.43;;;;;;;11.29;100.00;100921.53;5589096;31;32746;-69
2022/04/28 06:22:02;;;;;;;9.25;3.60;;;;;;;11.44;100.00;100925.25;5589309;31;32301;-69
2022/04/28 06:25:06;;;;;;;4.82;3.60;;;;;;;11.79;100.00;100918.91;5589869;31;34334;-69
2022/04/28 06:28:13;;;;;;;6.45;3.20;;;;;;;11.81;100.00;100924.09;5588723;31;32746;-69
2022/04/28 06:31:16;;;;;;;5.57;3.37;;;;;;;12.16;99.45;100934.44;5590405;31;33916;-69
2022/04/28 06:34:21;;;;;;;6.35;3.70;;;;;;;12.28;99.02;100932.28;5590392;31;34377;-68
2022/04/28 06:37:24;;;;;;;4.30;3.12;;;;;;;12.20;98.16;100931.28;5589501;31;32862;-68
2022/04/28 06:40:27;;;;;;;6.00;3.42;;;;;;;12.54;98.51;100938.25;5576103;31;32732;-68
2022/04/28 06:43:30;;;;;;;5.95;3.40;;;;;;;12.45;95.56;100941.94;5590157;31;34087;-68
2022/04/28 06:46:35;;;;;;;5.68;3.30;;;;;;;12.55;94.22;100945.25;5589282;31;33307;-68
2022/04/28 06:49:41;;;;;;;4.50;3.03;;;;;;;12.65;95.58;100937.94;5589212;31;33117;-68
2022/04/28 06:52:45;;;;;;;5.22;3.28;;;;;;;12.77;95.58;100930.44;5588918;31;32499;-68
2022/04/28 06:55:49;;;;;;;6.37;3.65;;;;;;;12.79;94.34;100937.25;5589092;31;33614;-68
2022/04/28 06:58:53;;;;;;;5.37;3.15;;;;;;;12.55;93.42;100939.94;5576044;31;33064;-68
2022/04/28 07:02:00;;;;;;;5.40;3.08;;;;;;;12.52;93.74;100938.47;5589317;31;33678;-67
2022/04/28 07:05:05;;;;;;;3.87;2.50;;;;;;;12.52;92.62;100937.63;5588957;31;32479;-68
2022/04/28 07:08:08;;;;;;;4.53;3.12;;;;;;;13.16;92.59;100941.22;5576449;31;33080;-67
2022/04/28 07:11:12;;;;;;;5.90;3.30;;;;;;;12.66;91.88;100934.28;5590015;31;34079;-67
2022/04/28 07:14:16;;;;;;;5.10;3.15;;;;;;;13.12;91.74;100937.25;5589847;31;34585;-67
2022/04/28 07:17:21;;;;;;;6.45;2.80;;;;;;;12.96;89.57;100941.56;5589912;31;34617;-67
2022/04/28 07:20:24;;;;;;;4.62;2.97;;;;;;;13.00;91.10;100939.41;5589440;31;32365;-70
2022/04/28 07:23:27;;;;;;;3.50;2.50;;;;;;;13.03;89.71;100947.88;5589996;31;34258;-69
2022/04/28 07:26:30;;;;;;;3.95;2.70;;;;;;;13.14;89.64;100940.56;5576386;31;32498;-69
2022/04/28 07:29:33;;;;;;;5.40;3.33;;;;;;;12.89;89.79;100945.06;5589014;31;33512;-68
2022/04/28 07:32:36;;;;;;;5.22;3.28;;;;;;;13.08;88.66;100953.53;5590056;31;34118;-68
2022/04/28 07:35:45;;;;;;;4.97;3.05;;;;;;;13.50;85.02;100949.78;5588563;31;32924;-68
2022/04/28 07:38:51;;;;;;;4.75;2.90;;;;;;;13.46;85.38;100951.09;5589170;31;33033;-68
2022/04/28 07:41:54;;;;;;;6.40;2.47;;;;;;;13.54;84.13;100958.25;5589134;31;35208;-68
2022/04/28 07:44:57;;;;;;;3.87;2.65;;;;;;;13.86;85.66;100964.25;5589125;31;32467;-68
2022/04/28 07:48:00;;;;;;;5.62;2.45;;;;;;;13.67;83.30;100964.69;5588817;31;32894;-68
2022/04/28 07:51:06;;;;;;;4.78;2.92;;;;;;;14.31;83.10;100968.00;5588961;31;33552;-67
2022/04/28 07:54:09;;;;;;;5.12;2.62;;;;;;;14.56;79.21;100956.16;5588831;31;32877;-67
2022/04/28 07:57:11;;;;;;;3.78;2.42;;;;;;;14.39;78.84;100949.28;5588328;31;33539;-67
2022/04/28 08:00:15;;;;;;;9.45;2.53;;;;;;;14.74;77.11;100961.16;5575886;31;33082;-68
2022/04/28 08:03:21;;;;;;;5.78;2.83;;;;;;;14.57;77.76;100959.66;5589436;31;34250;-67
2022/04/28 08:06:24;;;;;;;5.18;2.55;;;;;;;14.26;79.27;100957.00;5589829;31;34648;-68
2022/04/28 08:09:27;;;;;;;4.00;2.47;;;;;;;14.75;78.61;100963.66;5589683;31;33952;-67
2022/04/28 08:12:30;;;;;;;3.85;2.62;;;;;;;14.60;77.70;100967.31;5589728;31;34630;-67
2022/04/28 08:15:57;;;;;;;3.65;2.28;;;;;;;15.10;76.36;100959.47;5588415;31;32680;-66
2022/04/28 08:19:02;;;;;;;3.80;2.30;;;;;;;15.72;72.31;100959.13;5588455;31;32505;-66
2022/04/28 08:22:06;;;;;;;7.75;4.82;;;;;;;15.66;72.14;100959.88;5588409;31;34007;-66
2022/04/28 08:25:09;;;;;;;4.32;2.30;;;;;;;16.46;69.39;100954.34;5588189;31;33999;-67
2022/04/28 08:28:13;;;;;;;3.58;1.92;;;;;;;17.17;62.07;100961.34;5589524;31;34003;-66
2022/04/28 08:31:17;;;;;;;5.18;1.73;;;;;;;17.93;57.57;100967.53;5588705;31;34252;-68
2022/04/28 08:34:22;;;;;;;3.28;1.75;;;;;;;17.74;58.20;100974.47;5588857;31;33469;-67
2022/04/28 08:37:25;;;;;;;3.28;2.05;;;;;;;16.80;58.20;100978.59;5589721;31;34275;-66
2022/04/28 08:40:28;;;;;;;4.07;2.03;;;;;;;15.85;57.82;100977.19;5588483;31;33093;-67
2022/04/28 08:43:33;;;;;;;7.82;2.25;;;;;;;15.75;59.42;100961.41;5588183;31;32786;-67
2022/04/28 08:46:52;;;;;;;2.70;1.80;;;;;;;16.06;59.30;100974.56;5575369;31;33214;-66
2022/04/28 08:49:55;;;;;;;2.60;1.80;;;;;;;15.95;57.16;100975.87;5588311;31;34099;-66
2022/04/28 08:52:59;;;;;;;3.40;1.80;;;;;;;16.19;57.28;100972.00;5589245;31;35243;-66
2022/04/28 08:56:02;;;;;;;2.80;2.17;;;;;;;16.38;57.00;100978.59;5588533;31;32986;-67
2022/04/28 08:59:06;;;;;;;2.97;1.77;;;;;;;16.93;53.55;100977.88;5588841;31;34034;-68
2022/04/28 09:02:11;;;;;;;3.10;1.83;;;;;;;17.20;54.99;100985.09;5587820;31;32870;-67
2022/04/28 09:05:18;;;;;;;2.65;1.83;;;;;;;17.27;52.29;100977.09;5587684;31;32791;-65
2022/04/28 09:08:23;;;;;;;4.68;2.00;;;;;;;17.86;51.45;100981.97;5588982;31;34079;-67
2022/04/28 09:11:28;;;;;;;2.80;1.92;;;;;;;17.60;52.90;100980.81;5588615;31;35275;-66
2022/04/28 09:14:33;;;;;;;2.40;1.95;;;;;;;17.90;51.74;100985.91;5588584;31;34510;-67
2022/04/28 09:17:41;;;;;;;2.83;1.80;;;;;;;17.92;54.20;100989.19;5587913;31;32630;-66
2022/04/28 09:20:46;;;;;;;3.15;1.80;;;;;;;17.64;51.46;100992.81;5587286;31;33211;-68
2022/04/28 09:23:53;;;;;;;2.15;1.60;;;;;;;17.39;51.71;100984.38;5587258;31;33126;-67
2022/04/28 09:26:57;;;;;;;3.62;2.00;;;;;;;16.51;55.08;100979.53;5588628;31;32778;-65
2022/04/28 09:30:00;;;;;;;2.95;1.87;;;;;;;16.36;55.36;100983.31;5590731;31;34247;-67
2022/04/28 09:33:13;;;;;;;5.03;2.20;;;;;;;17.11;55.67;100978.22;5590040;31;33028;-66
2022/04/28 09:36:18;;;;;;;2.67;1.95;;;;;;;17.04;52.91;100987.25;5576973;31;34037;-67
2022/04/28 09:42:48;;;;;;;5.50;2.08;;;;;;;16.73;54.27;100990.28;5594618;31;34549;-67
2022/04/28 09:45:55;;;;;;;4.90;1.73;;;;;;;17.48;54.30;100992.25;5591343;31;33045;-66
2022/04/28 09:48:58;;;;;;;2.60;1.77;;;;;;;17.33;52.88;100990.53;5592776;31;34809;-66
2022/04/28 09:52:04;;;;;;;3.83;2.03;;;;;;;17.71;51.44;100995.53;5589799;31;32575;-66
2022/04/28 09:55:08;;;;;;;3.10;2.10;;;;;;;17.34;53.72;100994.03;5589835;31;32470;-68
2022/04/28 09:58:14;;;;;;;2.78;1.98;;;;;;;17.49;54.11;101000.13;5589744;31;32323;-68
2022/04/28 10:01:19;;;;;;;3.42;2.00;;;;;;;17.68;52.57;101006.66;5589655;31;33790;-67
2022/04/28 10:04:23;;;;;;;2.87;2.15;;;;;;;17.27;55.13;100991.34;5590312;31;34308;-66
2022/04/28 10:07:28;;;;;;;2.42;2.03;;;;;;;17.37;53.57;100985.63;5590503;31;34819;-66
2022/04/28 10:10:34;;;;;;;4.53;1.92;;;;;;;17.28;55.19;100992.16;5589922;31;33433;-67
2022/04/28 10:13:39;;;;;;;3.50;2.00;;;;;;;17.32;53.64;100991.56;5589681;31;34019;-66
2022/04/28 10:16:47;;;;;;;3.92;2.37;;;;;;;16.68;54.95;100992.72;5589584;31;33278;-67
2022/04/28 10:19:54;;;;;;;3.67;2.25;;;;;;;16.85;54.26;100999.44;5590617;31;34140;-66
2022/04/28 10:23:09;;;;;;;2.90;2.12;;;;;;;16.76;55.19;100987.22;5589368;31;32432;-66
2022/04/28 10:33:41;;;;;;;3.43;2.23;;;;;;;17.13;52.95;100983.41;5590519;31;34611;-66
2022/04/28 10:37:01;;;;;;;2.92;2.08;;;;;;;17.39;51.91;100983.53;5588872;31;34384;-66
2022/04/28 10:40:04;;;;;;;3.42;1.95;;;;;;;17.99;50.33;100990.91;5589349;31;33087;-67
2022/04/28 10:43:23;;;;;;;4.10;1.55;;;;;;;18.20;50.01;100989.94;5589491;31;33191;-67
2022/04/28 10:46:25;;;;;;;2.55;1.98;;;;;;;18.27;48.88;100987.25;5590201;31;34406;-67
2022/04/28 10:49:37;;;;;;;2.08;1.60;;;;;;;18.14;48.61;100993.44;5589642;31;32603;-67
2022/04/28 10:52:40;;;;;;;2.53;1.83;;;;;;;18.20;48.31;100992.63;5590608;31;33994;-68
2022/04/28 10:55:44;;;;;;;3.05;1.62;;;;;;;17.74;48.22;100987.91;5589111;31;32444;-68
2022/04/28 10:58:47;;;;;;;4.07;1.55;;;;;;;17.37;49.50;100996.34;5589522;31;33126;-67
2022/04/28 11:01:50;;;;;;;2.85;1.95;;;;;;;17.34;49.49;100994.03;5590119;31;33992;-66
2022/04/28 11:05:01;;;;;;;3.40;1.80;;;;;;;17.68;48.86;100994.06;5590549;31;33879;-66
2022/04/28 11:08:08;;;;;;;3.72;2.08;;;;;;;17.90;47.19;101002.00;5590248;31;34300;-66
2022/04/28 11:11:15;;;;;;;3.92;2.15;;;;;;;17.64;47.14;100998.16;5590617;31;34614;-64
2022/04/28 11:14:20;;;;;;;3.97;2.10;;;;;;;18.29;44.66;101010.22;5589188;31;32332;-68
2022/04/28 11:17:22;;;;;;;2.50;2.10;;;;;;;18.87;43.63;101011.34;5590106;31;34643;-67
2022/04/28 11:20:29;;;;;;;3.40;1.92;;;;;;;19.36;43.39;101007.38;5589371;31;32781;-66
2022/04/28 11:23:34;;;;;;;2.72;1.85;;;;;;;19.16;41.94;101011.97;5590022;31;34089;-67
2022/04/28 11:26:37;;;;;;;4.15;2.47;;;;;;;19.41;45.05;101005.69;5589201;31;32545;-67
2022/04/28 11:29:42;;;;;;;4.00;2.45;;;;;;;18.69;50.88;101005.75;5576119;31;32604;-66
2022/04/28 11:32:53;;;;;;;3.03;2.22;;;;;;;18.15;53.52;101014.69;5589802;31;34081;-66
2022/04/28 11:35:55;;;;;;;3.12;2.30;;;;;;;17.33;56.44;101009.28;5589951;31;34158;-66
2022/04/28 11:39:02;;;;;;;3.85;2.30;;;;;;;17.34;55.80;101004.75;5589228;31;32961;-66
2022/04/28 11:42:09;;;;;;;5.57;2.30;;;;;;;17.14;54.68;101011.84;5590032;31;34293;-66
2022/04/28 11:45:12;;;;;;;2.97;2.22;;;;;;;17.18;54.59;101015.81;5590131;31;34011;-66
2022/04/28 11:48:15;;;;;;;3.33;2.15;;;;;;;17.49;56.61;101010.84;5587854;31;33783;-66
2022/04/28 11:51:23;;;;;;;2.83;2.00;;;;;;;17.39;53.70;101016.56;5589182;31;32365;-65
2022/04/28 11:54:27;;;;;;;3.85;2.05;;;;;;;18.14;53.00;101014.91;5589081;31;32857;-66
2022/04/28 11:57:31;;;;;;;2.75;1.90;;;;;;;19.05;50.24;101022.31;5589194;31;33260;-67
2022/04/28 12:00:37;;;;;;;3.03;1.98;;;;;;;20.51;45.76;101020.84;5588672;31;32239;-69
2022/04/28 12:03:50;;;;;;;3.17;2.17;;;;;;;22.29;41.79;101022.63;5589664;31;35230;-67
2022/04/28 12:06:53;;;;;;;4.75;2.05;;;;;;;24.12;37.65;101019.66;5589958;31;33970;-69
2022/04/28 12:20:21;;;;;;;2.20;1.60;;;;;;;20.54;43.62;101011.50;5589470;31;34586;-66
2022/04/28 12:23:39;;;;;;;2.33;1.48;;;;;;;21.24;40.25;101015.75;5589369;31;33852;-66
2022/04/28 12:26:43;;;;;;;2.87;1.40;;;;;;;21.06;38.06;101013.78;5589306;31;33842;-67
2022/04/28 12:29:52;;;;;;;2.25;1.60;;;;;;;21.66;37.29;101012.16;5588755;31;35938;-67
2022/04/28 12:32:54;;;;;;;2.72;1.50;;;;;;;21.66;37.70;101019.44;5588129;31;32750;-66
2022/04/28 12:36:01;;;;;;;3.75;1.20;;;;;;;21.38;39.08;101019.13;5589307;31;33967;-66
2022/04/28 12:39:04;;;;;;;3.08;1.70;;;;;;;20.67;38.82;101014.91;5588167;31;32449;-65
2022/04/28 12:42:10;;;;;;;1.73;1.30;;;;;;;19.70;40.32;101009.00;5588395;31;33680;-66
2022/04/28 12:45:13;;;;;;;2.10;1.75;;;;;;;20.21;41.61;101009.78;5588809;31;34667;-64
2022/04/28 12:48:33;;;;;;;3.25;1.52;;;;;;;21.02;38.72;101009.03;5588294;31;32423;-66
2022/04/28 12:51:53;;;;;;;3.25;2.25;;;;;;;22.27;37.82;101013.91;5588321;31;32357;-65
2022/04/28 12:55:06;;;;;;;2.60;1.75;;;;;;;22.70;36.95;101016.47;5588483;31;33728;-65
2022/04/28 12:58:09;;;;;;;3.05;1.75;;;;;;;21.12;39.98;101012.06;5588646;31;34062;-66
2022/04/28 13:01:20;;;;;;;2.72;1.73;;;;;;;22.23;38.51;101007.31;5588359;31;34722;-67
2022/04/28 13:04:25;;;;;;;2.75;1.62;;;;;;;23.09;36.97;101017.66;5589484;31;33880;-66
2022/04/28 13:07:28;;;;;;;4.68;2.05;;;;;;;20.76;40.17;101019.03;5588904;31;33969;-66
2022/04/28 13:10:30;;;;;;;3.20;1.73;;;;;;;20.52;41.82;101011.72;5588754;31;34562;-65
2022/04/28 13:13:33;;;;;;;2.33;1.70;;;;;;;19.90;42.85;101004.34;5588184;31;33744;-66
2022/04/28 13:16:37;;;;;;;2.65;1.77;;;;;;;19.12;43.95;101013.41;5587827;31;32821;-66
2022/04/28 13:19:40;;;;;;;5.53;1.70;;;;;;;19.86;44.42;101012.03;5588528;31;34006;-65
2022/04/28 13:22:44;;;;;;;3.17;1.92;;;;;;;19.76;43.83;101005.44;5587912;31;32560;-65
2022/04/28 13:25:48;;;;;;;2.00;1.80;;;;;;;19.26;42.69;101023.13;5588847;31;34542;-66
2022/04/28 13:28:52;;;;;;;2.33;1.60;;;;;;;19.27;43.10;101014.00;5586816;31;32535;-66
2022/04/28 13:31:55;;;;;;;4.20;1.62;;;;;;;19.72;43.54;101017.66;5587951;31;33415;-66
2022/04/28 13:34:57;;;;;;;2.08;1.60;;;;;;;19.85;42.85;101018.44;5588125;31;33982;-66
2022/04/28 13:38:01;;;;;;;3.85;2.05;;;;;;;19.04;43.52;101017.97;5588227;31;33902;-66
2022/04/28 13:41:04;;;;;;;2.60;1.55;;;;;;;19.31;43.33;101016.09;5587299;31;32566;-66
2022/04/28 13:44:07;;;;;;;2.12;1.77;;;;;;;19.75;41.12;101009.19;5586812;31;34784;-66
2022/04/28 13:47:10;;;;;;;2.58;1.90;;;;;;;19.64;42.11;101009.81;5586843;31;32949;-65
2022/04/28 13:50:14;;;;;;;2.33;1.42;;;;;;;19.58;41.42;101014.19;5587170;31;33521;-66
2022/04/28 13:53:17;;;;;;;1.87;1.35;;;;;;;19.61;42.59;101011.06;5588064;31;34169;-66
2022/04/28 13:56:22;;;;;;;2.58;1.85;;;;;;;19.78;39.99;101003.34;5586262;31;32283;-65
2022/04/28 13:59:28;;;;;;;1.90;1.37;;;;;;;21.65;37.57;101004.28;5573620;31;32281;-65
2022/04/28 14:02:31;;;;;;;2.70;1.70;;;;;;;22.61;34.65;101004.28;5586795;31;32734;-66
2022/04/28 14:05:34;;;;;;;3.45;2.05;;;;;;;25.22;31.48;101005.66;5587710;31;34551;-65
2022/04/28 14:08:37;;;;;;;1.83;1.42;;;;;;;24.48;31.67;100992.19;5573207;31;34819;-67
2022/04/28 14:11:40;;;;;;;2.58;1.77;;;;;;;23.43;33.55;100991.66;5586545;31;32610;-65
2022/04/28 14:14:43;;;;;;;2.95;1.55;;;;;;;22.72;34.76;100998.09;5576078;31;32660;-66
2022/04/28 14:17:46;;;;;;;3.03;1.50;;;;;;;21.28;37.17;100992.66;5589012;31;32588;-67
2022/04/28 14:20:50;;;;;;;1.90;1.40;;;;;;;21.98;36.14;100993.09;5588980;31;34424;-66
2022/04/28 14:23:57;;;;;;;3.47;1.33;;;;;;;23.51;33.51;100993.22;5589084;31;32785;-66
2022/04/28 14:26:59;;;;;;;2.17;1.58;;;;;;;22.69;34.87;101003.13;5588996;31;33349;-65
2022/04/28 14:30:06;;;;;;;2.45;1.42;;;;;;;21.86;35.44;101008.41;5589200;31;33224;-66
2022/04/28 14:33:09;;;;;;;1.80;1.30;;;;;;;21.24;35.28;100991.44;5589889;31;34043;-66
2022/04/28 14:36:13;;;;;;;2.70;1.52;;;;;;;20.64;37.89;100995.66;5576401;31;33783;-66
2022/04/28 14:39:16;;;;;;;2.80;1.83;;;;;;;20.13;39.10;100985.81;5589060;31;33963;-65
2022/04/28 14:42:19;;;;;;;2.97;1.60;;;;;;;19.47;40.95;100986.06;5588656;31;32597;-66
2022/04/28 14:45:26;;;;;;;2.10;1.40;;;;;;;19.37;40.04;100979.41;5588881;31;34099;-66
2022/04/28 14:48:29;;;;;;;2.20;1.67;;;;;;;19.49;41.95;100985.84;5589398;31;33973;-65
2022/04/28 14:54:58;;;;;;;5.20;1.92;;;;;;;19.22;42.12;100993.09;5589534;31;35246;-66
2022/04/28 14:58:06;;;;;;;3.50;1.58;;;;;;;19.37;41.08;100985.63;5575364;31;34576;-65
2022/04/28 15:01:15;;;;;;;2.50;1.70;;;;;;;19.20;41.10;100989.81;5588056;31;32680;-66